createdAt,value
2019-04-14T00:01:39.364Z,102773.73
2019-04-14T00:04:46.573Z,102765.27
2019-04-14T00:07:51.722Z,102766.26
2019-04-14T00:10:57.178Z,102764.36
2019-04-14T00:14:01.769Z,102772.05
2019-04-14T00:17:06.610Z,102761.72
2019-04-14T00:20:11.865Z,102761.19
2019-04-14T00:23:17.241Z,102758.14
2019-04-14T00:26:31.679Z,102758.19
2019-04-14T00:29:37.066Z,102761.46
2019-04-14T00:32:55.277Z,102753.61
2019-04-14T00:36:19.700Z,102749.28
2019-04-14T00:39:27.482Z,102743.66
2019-04-14T00:42:53.903Z,102741.39
2019-04-14T00:46:04.316Z,102740.12
2019-04-14T00:49:09.320Z,102751.22
2019-04-14T00:52:14.542Z,102751.78
2019-04-14T00:55:18.899Z,102749.64
2019-04-14T00:58:23.669Z,102755.58
2019-04-14T01:01:28.621Z,102755.61
2019-04-14T01:04:33.770Z,102757.95
2019-04-14T01:07:39.079Z,102763.78
2019-04-14T01:10:43.443Z,102758.67
2019-04-14T01:13:48.636Z,102749.98
2019-04-14T01:16:53.815Z,102747.05
2019-04-14T01:19:59.236Z,102748.32
2019-04-14T01:23:04.189Z,102744.94
2019-04-14T01:26:09.328Z,102750.12
2019-04-14T01:29:14.408Z,102748.14
2019-04-14T01:32:19.698Z,102750.54
2019-04-14T01:35:24.917Z,102748.32
2019-04-14T01:38:29.719Z,102743.78
2019-04-14T01:41:34.686Z,102747.83
2019-04-14T01:44:39.603Z,102745.31
2019-04-14T01:47:44.540Z,102743.66
2019-04-14T01:51:07.105Z,102733.70
2019-04-14T01:54:29.867Z,102743.29
2019-04-14T01:57:41.447Z,102750.96
2019-04-14T02:01:04.181Z,102745.24
2019-04-14T02:04:09.519Z,102752.42
2019-04-14T02:07:14.473Z,102752.28
2019-04-14T02:10:19.437Z,102753.93
2019-04-14T02:13:24.720Z,102756.44
2019-04-14T02:16:37.952Z,102760.47
2019-04-14T02:19:35.015Z,102751.48
2019-04-14T02:22:39.760Z,102752.42
2019-04-14T02:25:45.039Z,102754.19
2019-04-14T02:28:50.434Z,102750.44
2019-04-14T02:32:27.245Z,102756.19
2019-04-14T02:35:28.466Z,102757.73
2019-04-14T02:38:42.889Z,102759.65
2019-04-14T02:41:49.261Z,102757.55
2019-04-14T02:44:45.644Z,102754.05
2019-04-14T02:50:59.497Z,102749.38
2019-04-14T02:54:05.018Z,102750.21
2019-04-14T02:57:12.145Z,102752.84
2019-04-14T03:00:25.865Z,102754.12
2019-04-14T03:03:27.831Z,102757.77
2019-04-14T03:06:29.128Z,102762.24
2019-04-14T03:12:44.117Z,102769.91
2019-04-14T03:15:48.133Z,102768.75
2019-04-14T03:19:06.632Z,102773.87
2019-04-14T03:22:37.144Z,102780.56
2019-04-14T03:25:39.361Z,102774.58
2019-04-14T03:29:08.214Z,102781.02
2019-04-14T03:32:10.410Z,102781.69
2019-04-14T03:35:27.138Z,102781.05
2019-04-14T03:44:28.110Z,102774.44
2019-04-14T03:47:25.082Z,102776.88
2019-04-14T03:50:37.834Z,102779.55
2019-04-14T03:53:35.599Z,102770.03
2019-04-14T03:56:49.385Z,102763.48
2019-04-14T03:59:54.210Z,102750.84
2019-04-14T04:02:58.415Z,102758.59
2019-04-14T04:06:03.178Z,102762.70
2019-04-14T04:09:08.426Z,102766.38
2019-04-14T04:12:13.924Z,102770.70
2019-04-14T04:15:19.259Z,102764.54
2019-04-14T04:18:26.579Z,102780.41
2019-04-14T04:21:51.277Z,102774.92
2019-04-14T04:25:00.786Z,102770.33
2019-04-14T04:28:23.209Z,102774.58
2019-04-14T04:31:33.072Z,102778.95
2019-04-14T04:35:04.309Z,102772.74
2019-04-14T04:38:35.565Z,102777.78
2019-04-14T04:41:40.728Z,102780.78
2019-04-14T04:44:46.136Z,102781.31
2019-04-14T04:47:51.305Z,102784.02
2019-04-14T04:50:56.373Z,102785.52
2019-04-14T04:54:01.697Z,102788.55
2019-04-14T04:57:06.816Z,102790.22
2019-04-14T05:00:11.620Z,102795.64
2019-04-14T05:03:16.827Z,102791.62
2019-04-14T05:07:12.828Z,102792.48
2019-04-14T05:10:26.357Z,102793.38
2019-04-14T05:13:38.742Z,102798.30
2019-04-14T05:16:44.005Z,102806.64
2019-04-14T05:19:48.295Z,102801.50
2019-04-14T05:22:52.965Z,102799.44
2019-04-14T05:25:58.099Z,102807.22
2019-04-14T05:29:03.497Z,102813.42
2019-04-14T05:32:08.808Z,102811.00
2019-04-14T05:35:14.102Z,102808.53
2019-04-14T05:38:19.096Z,102815.11
2019-04-14T05:41:24.412Z,102811.73
2019-04-14T05:44:29.687Z,102817.91
2019-04-14T05:47:35.017Z,102826.67
2019-04-14T05:50:40.074Z,102828.27
2019-04-14T05:53:44.382Z,102832.06
2019-04-14T05:56:49.376Z,102836.25
2019-04-14T05:59:54.758Z,102844.89
2019-04-14T06:02:59.503Z,102841.03
2019-04-14T06:06:03.862Z,102845.38
2019-04-14T06:09:08.300Z,102842.72
2019-04-14T06:12:12.621Z,102849.16
2019-04-14T06:15:17.028Z,102847.77
2019-04-14T06:18:21.325Z,102845.85
2019-04-14T06:21:25.615Z,102845.48
2019-04-14T06:24:29.920Z,102854.77
2019-04-14T06:27:34.370Z,102848.67
2019-04-14T06:31:09.045Z,102850.70
2019-04-14T06:34:15.477Z,102852.92
2019-04-14T06:37:27.891Z,102859.70
2019-04-14T06:40:36.364Z,102864.22
2019-04-14T06:43:48.695Z,102863.84
2019-04-14T06:46:46.683Z,102879.38
2019-04-14T06:49:50.966Z,102874.34
2019-04-14T06:52:55.248Z,102881.33
2019-04-14T06:55:59.567Z,102881.92
2019-04-14T06:59:03.937Z,102882.62
2019-04-14T07:02:08.719Z,102878.14
2019-04-14T07:05:13.018Z,102880.67
2019-04-14T07:08:17.299Z,102879.88
2019-04-14T07:11:21.588Z,102879.09
2019-04-14T07:14:25.896Z,102881.34
2019-04-14T07:17:30.193Z,102874.20
2019-04-14T07:20:34.544Z,102873.14
2019-04-14T07:23:38.900Z,102874.13
2019-04-14T07:26:43.191Z,102871.30
2019-04-14T07:29:57.072Z,102871.87
2019-04-14T07:33:17.540Z,102868.62
2019-04-14T07:36:36.103Z,102864.18
2019-04-14T07:39:59.334Z,102869.98
2019-04-14T07:43:14.396Z,102874.78
2019-04-14T07:46:43.823Z,102875.08
2019-04-14T07:50:14.515Z,102873.92
2019-04-14T07:53:30.464Z,102872.47
2019-04-14T07:56:59.495Z,102878.89
2019-04-14T08:00:11.361Z,102885.08
2019-04-14T08:03:34.344Z,102881.32
2019-04-14T08:06:38.648Z,102882.86
2019-04-14T08:09:42.959Z,102874.73
2019-04-14T08:12:47.249Z,102879.57
2019-04-14T08:15:51.528Z,102874.10
2019-04-14T08:18:55.855Z,102878.36
2019-04-14T08:22:00.143Z,102884.09
2019-04-14T08:25:04.543Z,102890.61
2019-04-14T08:28:08.819Z,102889.52
2019-04-14T08:31:13.140Z,102888.55
2019-04-14T08:34:17.449Z,102892.33
2019-04-14T08:37:21.787Z,102893.58
2019-04-14T08:40:26.072Z,102898.78
2019-04-14T08:43:42.076Z,102890.20
2019-04-14T08:47:08.182Z,102897.59
2019-04-14T08:50:39.587Z,102892.86
2019-04-14T08:53:47.351Z,102904.36
2019-04-14T08:57:17.329Z,102901.17
2019-04-14T09:00:52.595Z,102895.70
2019-04-14T09:04:01.727Z,102891.99
2019-04-14T09:07:28.134Z,102903.07
2019-04-14T09:10:36.293Z,102902.23
2019-04-14T09:13:40.610Z,102903.42
2019-04-14T09:16:44.901Z,102908.77
2019-04-14T09:19:49.271Z,102905.68
2019-04-14T09:22:53.574Z,102907.00
2019-04-14T09:25:57.856Z,102910.26
2019-04-14T09:29:02.139Z,102909.61
2019-04-14T09:32:08.328Z,102910.90
2019-04-14T09:35:12.621Z,102913.70
2019-04-14T09:38:16.926Z,102914.06
2019-04-14T09:41:21.203Z,102908.68
2019-04-14T09:44:25.520Z,102918.15
2019-04-14T09:47:29.801Z,102913.12
2019-04-14T09:50:34.093Z,102919.08
2019-04-14T09:53:38.408Z,102915.19
2019-04-14T09:56:42.710Z,102926.68
2019-04-14T09:59:47.007Z,102921.81
2019-04-14T10:02:51.314Z,102920.57
2019-04-14T10:05:55.616Z,102931.19
2019-04-14T10:08:59.915Z,102922.02
2019-04-14T10:12:04.203Z,102920.74
2019-04-14T10:15:08.708Z,102922.45
2019-04-14T10:18:13.020Z,102926.33
2019-04-14T10:21:17.992Z,102926.72
2019-04-14T10:24:22.469Z,102924.31
2019-04-14T10:27:26.770Z,102929.04
2019-04-14T10:30:31.059Z,102927.20
2019-04-14T10:33:35.345Z,102934.75
2019-04-14T10:36:39.635Z,102933.09
2019-04-14T10:39:43.929Z,102933.19
2019-04-14T10:42:48.194Z,102928.98
2019-04-14T10:45:52.577Z,102925.67
2019-04-14T10:48:56.879Z,102933.88
2019-04-14T10:52:01.199Z,102929.24
2019-04-14T10:55:06.106Z,102928.83
2019-04-14T10:58:10.409Z,102931.13
2019-04-14T11:01:14.738Z,102932.13
2019-04-14T11:04:19.072Z,102927.38
2019-04-14T11:07:28.760Z,102936.98
2019-04-14T11:10:33.075Z,102933.19
2019-04-14T11:13:37.346Z,102933.88
2019-04-14T11:16:41.666Z,102934.41
2019-04-14T11:19:45.984Z,102932.13
2019-04-14T11:23:02.501Z,102928.59
2019-04-14T11:25:56.324Z,102928.95
2019-04-14T11:29:00.656Z,102929.59
2019-04-14T11:32:36.168Z,102931.61
2019-04-14T11:36:05.542Z,102933.47
2019-04-14T11:39:12.197Z,102927.41
2019-04-14T11:42:16.626Z,102929.38
2019-04-14T11:45:21.072Z,102919.45
2019-04-14T11:48:25.368Z,102920.05
2019-04-14T11:51:29.689Z,102918.81
2019-04-14T11:54:33.976Z,102923.91
2019-04-14T11:57:38.281Z,102925.06
2019-04-14T12:01:11.444Z,102924.80
2019-04-14T12:04:33.179Z,102922.72
2019-04-14T12:07:50.149Z,102913.77
2019-04-14T12:10:54.461Z,102911.47
2019-04-14T12:13:58.779Z,102904.52
2019-04-14T12:17:03.103Z,102912.75
2019-04-14T12:20:08.445Z,102911.36
2019-04-14T12:23:12.766Z,102907.27
2019-04-14T12:26:17.073Z,102911.31
2019-04-14T12:29:21.501Z,102919.58
2019-04-14T12:32:25.904Z,102912.50
2019-04-14T12:35:30.205Z,102917.25
2019-04-14T12:38:34.509Z,102916.88
2019-04-14T12:41:44.103Z,102923.55
2019-04-14T12:45:05.794Z,102915.39
2019-04-14T12:48:30.068Z,102922.59
2019-04-14T12:51:37.123Z,102931.52
2019-04-14T12:54:41.479Z,102935.84
2019-04-14T12:57:47.753Z,102944.87
2019-04-14T13:00:56.555Z,102937.09
2019-04-14T13:04:00.898Z,102936.97
2019-04-14T13:07:05.471Z,102940.47
2019-04-14T13:10:10.066Z,102942.11
2019-04-14T13:13:14.432Z,102933.63
2019-04-14T13:16:18.748Z,102932.29
2019-04-14T13:19:23.101Z,102933.75
2019-04-14T13:22:34.143Z,102924.84
2019-04-14T13:25:36.597Z,102916.89
2019-04-14T13:28:40.909Z,102917.48
2019-04-14T13:31:45.897Z,102915.23
2019-04-14T13:34:50.222Z,102913.45
2019-04-14T13:37:54.552Z,102912.56
2019-04-14T13:40:58.873Z,102907.27
2019-04-14T13:44:03.314Z,102901.78
2019-04-14T13:47:07.622Z,102902.34
2019-04-14T13:50:12.126Z,102894.56
2019-04-14T13:53:16.481Z,102891.08
2019-04-14T13:56:20.801Z,102891.93
2019-04-14T13:59:25.129Z,102898.13
2019-04-14T14:02:29.445Z,102897.13
2019-04-14T14:05:36.615Z,102905.30
2019-04-14T14:08:40.953Z,102897.55
2019-04-14T14:12:07.061Z,102898.04
2019-04-14T14:15:28.559Z,102893.25
2019-04-14T14:18:40.450Z,102893.88
2019-04-14T14:22:03.710Z,102895.00
2019-04-14T14:25:14.247Z,102897.66
2019-04-14T14:28:18.605Z,102892.26
2019-04-14T14:31:22.948Z,102893.97
2019-04-14T14:34:27.304Z,102902.14
2019-04-14T14:37:31.674Z,102899.65
2019-04-14T14:40:35.973Z,102891.27
2019-04-14T14:43:40.347Z,102891.84
2019-04-14T14:47:02.290Z,102897.02
2019-04-14T14:50:24.416Z,102891.30
2019-04-14T14:53:28.747Z,102895.00
2019-04-14T14:56:33.125Z,102895.05
2019-04-14T14:59:37.499Z,102898.63
2019-04-14T15:02:41.880Z,102895.07
2019-04-14T15:05:46.249Z,102904.92
2019-04-14T15:08:50.579Z,102913.45
2019-04-14T15:11:54.970Z,102909.45
2019-04-14T15:14:59.306Z,102909.88
2019-04-14T15:18:03.646Z,102907.56
2019-04-14T15:21:08.179Z,102905.06
2019-04-14T15:24:12.506Z,102903.95
2019-04-14T15:27:16.853Z,102903.73
2019-04-14T15:30:22.241Z,102910.21
2019-04-14T15:33:26.615Z,102916.23
2019-04-14T15:36:31.028Z,102908.24
2019-04-14T15:39:37.596Z,102905.53
2019-04-14T15:42:41.718Z,102901.28
2019-04-14T15:45:46.061Z,102901.75
2019-04-14T15:48:50.473Z,102906.16
2019-04-14T15:51:54.827Z,102903.08
2019-04-14T15:54:59.236Z,102896.80
2019-04-14T15:58:16.210Z,102900.45
2019-04-14T16:01:38.303Z,102907.07
2019-04-14T16:05:00.751Z,102899.42
2019-04-14T16:08:30.369Z,102899.77
2019-04-14T16:11:45.107Z,102901.34
2019-04-14T16:15:07.131Z,102905.61
2019-04-14T16:18:28.881Z,102905.02
2019-04-14T16:21:33.444Z,102900.78
2019-04-14T16:24:37.891Z,102911.05
2019-04-14T16:27:56.966Z,102910.51
2019-04-14T16:31:32.374Z,102904.94
2019-04-14T16:34:57.941Z,102903.58
2019-04-14T16:38:02.387Z,102917.96
2019-04-14T16:41:07.109Z,102899.23
2019-04-14T16:44:11.625Z,102900.19
2019-04-14T16:47:16.043Z,102904.09
2019-04-14T16:50:20.475Z,102905.52
2019-04-14T16:53:30.134Z,102902.11
2019-04-14T16:56:53.763Z,102908.92
2019-04-14T16:59:58.411Z,102909.92
2019-04-14T17:03:02.918Z,102910.48
2019-04-14T17:06:07.486Z,102912.37
2019-04-14T17:09:12.138Z,102915.23
2019-04-14T17:12:16.655Z,102914.87
2019-04-14T17:15:43.194Z,102915.23
2019-04-14T17:18:54.934Z,102917.45
2019-04-14T17:22:24.078Z,102923.59
2019-04-14T17:25:33.359Z,102925.64
2019-04-14T17:29:14.915Z,102926.50
2019-04-14T17:32:28.316Z,102929.39
2019-04-14T17:35:42.986Z,102922.02
2019-04-14T17:39:04.910Z,102924.48
2019-04-14T17:42:22.839Z,102926.58
2019-04-14T17:45:44.650Z,102930.84
2019-04-14T17:49:14.089Z,102934.84
2019-04-14T17:52:30.413Z,102944.63
2019-04-14T17:55:50.542Z,102940.56
2019-04-14T17:59:06.938Z,102947.52
2019-04-14T18:02:27.761Z,102949.80
2019-04-14T18:05:39.512Z,102952.40
2019-04-14T18:09:02.961Z,102955.45
2019-04-14T18:12:26.462Z,102964.02
2019-04-14T18:15:40.684Z,102964.39
2019-04-14T18:18:56.503Z,102972.78
2019-04-14T18:22:01.035Z,102978.61
2019-04-14T18:25:06.309Z,102983.69
2019-04-14T18:28:31.756Z,102988.84
2019-04-14T18:31:54.011Z,102991.05
2019-04-14T18:35:25.988Z,102988.06
2019-04-14T18:38:38.606Z,102993.75
2019-04-14T18:41:51.374Z,102995.95
2019-04-14T18:45:07.917Z,103001.77
2019-04-14T18:48:30.067Z,103000.76
2019-04-14T18:51:56.215Z,103004.92
2019-04-14T18:55:17.476Z,103003.52
2019-04-14T18:58:40.889Z,103010.47
2019-04-14T19:01:46.235Z,103004.47
2019-04-14T19:04:50.889Z,103012.63
2019-04-14T19:07:55.552Z,103013.25
2019-04-14T19:11:08.491Z,103011.70
2019-04-14T19:14:16.893Z,103013.14
2019-04-14T19:17:40.445Z,103017.09
2019-04-14T19:20:48.163Z,103022.31
2019-04-14T19:23:52.756Z,103018.72
2019-04-14T19:26:59.074Z,103024.04
2019-04-14T19:30:03.699Z,103023.53
2019-04-14T19:33:08.372Z,103033.19
2019-04-14T19:36:13.012Z,103040.57
2019-04-14T19:39:17.674Z,103036.63
2019-04-14T19:42:22.349Z,103034.33
2019-04-14T19:45:29.186Z,103044.38
2019-04-14T19:48:33.923Z,103045.70
2019-04-14T19:51:39.084Z,103059.51
2019-04-14T19:54:43.767Z,103041.10
2019-04-14T19:57:48.272Z,103046.03
2019-04-14T20:00:52.776Z,103048.41
2019-04-14T20:03:57.317Z,103049.06
2019-04-14T20:07:01.819Z,103050.80
2019-04-14T20:10:09.146Z,103051.98
2019-04-14T20:13:13.629Z,103055.09
2019-04-14T20:16:35.757Z,103054.43
2019-04-14T20:19:54.910Z,103048.06
2019-04-14T20:23:21.467Z,103054.81
2019-04-14T20:26:44.825Z,103064.97
2019-04-14T20:29:52.319Z,103063.41
2019-04-14T20:32:56.729Z,103066.13
2019-04-14T20:36:01.096Z,103066.98
2019-04-14T20:39:09.760Z,103073.14
2019-04-14T20:42:14.388Z,103072.62
2019-04-14T20:45:19.543Z,103071.98
2019-04-14T20:48:23.967Z,103076.47
2019-04-14T20:51:28.292Z,103074.02
2019-04-14T20:54:32.595Z,103085.14
2019-04-14T20:57:37.727Z,103076.36
2019-04-14T21:00:42.214Z,103079.53
2019-04-14T21:04:05.453Z,103083.42
2019-04-14T21:07:28.687Z,103085.14
2019-04-14T21:10:43.369Z,103078.62
2019-04-14T21:14:06.765Z,103085.36
2019-04-14T21:17:26.316Z,103085.94
2019-04-14T21:20:51.883Z,103080.47
2019-04-14T21:24:13.490Z,103077.27
2019-04-14T21:27:45.590Z,103082.17
2019-04-14T21:31:08.809Z,103088.45
2019-04-14T21:34:35.126Z,103093.00
2019-04-14T21:38:07.100Z,103093.68
2019-04-14T21:41:19.036Z,103086.20
2019-04-14T21:44:23.369Z,103089.52
2019-04-14T21:47:27.770Z,103081.77
2019-04-14T21:50:32.268Z,103090.48
2019-04-14T21:53:36.643Z,103100.63
2019-04-14T21:56:40.911Z,103099.97
2019-04-14T22:00:22.918Z,103107.89
2019-04-14T22:03:37.832Z,103108.53
2019-04-14T22:06:42.532Z,103111.08
2019-04-14T22:09:46.888Z,103117.99
2019-04-14T22:12:51.178Z,103117.97
2019-04-14T22:15:55.623Z,103122.20
2019-04-14T22:18:59.915Z,103130.34
2019-04-14T22:22:04.210Z,103125.41
2019-04-14T22:25:08.831Z,103128.64
2019-04-14T22:28:13.097Z,103130.34
2019-04-14T22:31:17.371Z,103128.08
2019-04-14T22:34:21.842Z,103133.12
2019-04-14T22:37:26.120Z,103135.99
2019-04-14T22:40:30.387Z,103142.66
2019-04-14T22:43:34.668Z,103146.53
2019-04-14T22:46:39.080Z,103150.65
2019-04-14T22:49:43.372Z,103142.75
2019-04-14T22:52:47.659Z,103149.45
2019-04-14T22:55:52.020Z,103145.92
2019-04-14T22:58:56.423Z,103151.87
2019-04-14T23:02:07.389Z,103153.31
2019-04-14T23:05:24.350Z,103152.98
2019-04-14T23:08:41.847Z,103153.64
2019-04-14T23:11:55.942Z,103166.92
2019-04-14T23:15:19.198Z,103169.31
2019-04-14T23:18:31.341Z,103164.28
2019-04-14T23:21:39.854Z,103176.89
2019-04-14T23:24:46.340Z,103166.88
2019-04-14T23:27:50.743Z,103174.21
2019-04-14T23:30:57.415Z,103177.64
2019-04-14T23:34:01.021Z,103180.31
2019-04-14T23:37:05.291Z,103171.58
2019-04-14T23:40:09.770Z,103178.91
2019-04-14T23:43:14.117Z,103181.02
2019-04-14T23:46:18.398Z,103182.50
2019-04-14T23:49:22.679Z,103184.69
2019-04-14T23:52:26.968Z,103188.97
2019-04-14T23:55:31.298Z,103187.28
2019-04-14T23:58:35.567Z,103175.95
